sensor_id;sensor_type;location;lat;lon;timestamp;P1;durP1;ratioP1;P2;durP2;ratioP2
43998;SDS011;51319;52.162;5.302;2023-03-01T00:01:16;20.55;;;12.98;;
43998;SDS011;51319;52.162;5.302;2023-03-01T00:03:48;18.45;;;12.07;;
43998;SDS011;51319;52.162;5.302;2023-03-01T00:06:16;21.27;;;13.13;;
43998;SDS011;51319;52.162;5.302;2023-03-01T00:08:44;20.58;;;11.88;;
43998;SDS011;51319;52.162;5.302;2023-03-01T00:13:39;23.67;;;12.60;;
43998;SDS011;51319;52.162;5.302;2023-03-01T00:16:09;20.63;;;12.35;;
43998;SDS011;51319;52.162;5.302;2023-03-01T00:18:41;26.70;;;12.85;;
43998;SDS011;51319;52.162;5.302;2023-03-01T00:21:07;26.75;;;12.35;;
43998;SDS011;51319;52.162;5.302;2023-03-01T00:23:34;20.17;;;12.88;;
43998;SDS011;51319;52.162;5.302;2023-03-01T00:26:05;23.17;;;12.32;;
43998;SDS011;51319;52.162;5.302;2023-03-01T00:28:33;23.45;;;12.70;;
43998;SDS011;51319;52.162;5.302;2023-03-01T00:31:07;26.83;;;14.02;;
43998;SDS011;51319;52.162;5.302;2023-03-01T00:33:36;24.17;;;13.00;;
43998;SDS011;51319;52.162;5.302;2023-03-01T00:36:03;19.55;;;12.60;;
43998;SDS011;51319;52.162;5.302;2023-03-01T00:38:34;22.90;;;12.45;;
43998;SDS011;51319;52.162;5.302;2023-03-01T00:41:12;21.73;;;13.63;;
43998;SDS011;51319;52.162;5.302;2023-03-01T00:43:41;21.67;;;13.25;;
43998;SDS011;51319;52.162;5.302;2023-03-01T00:46:09;22.65;;;13.82;;
43998;SDS011;51319;52.162;5.302;2023-03-01T00:48:40;23.98;;;14.05;;
43998;SDS011;51319;52.162;5.302;2023-03-01T00:53:42;23.13;;;14.27;;
43998;SDS011;51319;52.162;5.302;2023-03-01T00:56:10;25.52;;;13.95;;
43998;SDS011;51319;52.162;5.302;2023-03-01T00:58:38;21.95;;;13.73;;
43998;SDS011;51319;52.162;5.302;2023-03-01T01:01:12;25.48;;;14.48;;
43998;SDS011;51319;52.162;5.302;2023-03-01T01:03:45;24.60;;;14.70;;
43998;SDS011;51319;52.162;5.302;2023-03-01T01:06:20;28.58;;;14.73;;
43998;SDS011;51319;52.162;5.302;2023-03-01T01:08:56;23.02;;;13.55;;
43998;SDS011;51319;52.162;5.302;2023-03-01T01:11:25;33.08;;;14.40;;
43998;SDS011;51319;52.162;5.302;2023-03-01T01:13:53;22.05;;;13.52;;
43998;SDS011;51319;52.162;5.302;2023-03-01T01:16:22;28.35;;;14.70;;
43998;SDS011;51319;52.162;5.302;2023-03-01T01:18:49;25.67;;;14.48;;
43998;SDS011;51319;52.162;5.302;2023-03-01T01:21:18;23.17;;;13.85;;
43998;SDS011;51319;52.162;5.302;2023-03-01T01:23:47;25.10;;;14.20;;
43998;SDS011;51319;52.162;5.302;2023-03-01T01:26:18;22.48;;;14.30;;
43998;SDS011;51319;52.162;5.302;2023-03-01T01:28:47;25.10;;;14.65;;
43998;SDS011;51319;52.162;5.302;2023-03-01T01:31:14;21.98;;;14.00;;
43998;SDS011;51319;52.162;5.302;2023-03-01T01:33:42;26.05;;;14.48;;
43998;SDS011;51319;52.162;5.302;2023-03-01T01:36:09;25.98;;;13.98;;
43998;SDS011;51319;52.162;5.302;2023-03-01T01:38:36;23.90;;;13.85;;
43998;SDS011;51319;52.162;5.302;2023-03-01T01:41:04;27.05;;;15.20;;
43998;SDS011;51319;52.162;5.302;2023-03-01T01:43:36;23.73;;;14.25;;
43998;SDS011;51319;52.162;5.302;2023-03-01T01:46:30;26.23;;;15.65;;
43998;SDS011;51319;52.162;5.302;2023-03-01T01:52:07;27.63;;;14.55;;
43998;SDS011;51319;52.162;5.302;2023-03-01T01:57:25;26.95;;;15.13;;
43998;SDS011;51319;52.162;5.302;2023-03-01T02:00:00;27.10;;;13.95;;
43998;SDS011;51319;52.162;5.302;2023-03-01T02:02:31;23.63;;;14.43;;
43998;SDS011;51319;52.162;5.302;2023-03-01T02:05:01;23.33;;;14.55;;
43998;SDS011;51319;52.162;5.302;2023-03-01T02:07:36;25.25;;;15.10;;
43998;SDS011;51319;52.162;5.302;2023-03-01T02:10:06;23.23;;;15.02;;
43998;SDS011;51319;52.162;5.302;2023-03-01T02:12:33;23.17;;;14.32;;
43998;SDS011;51319;52.162;5.302;2023-03-01T02:15:02;25.08;;;15.35;;
43998;SDS011;51319;52.162;5.302;2023-03-01T02:17:29;25.50;;;14.32;;
43998;SDS011;51319;52.162;5.302;2023-03-01T02:22:48;25.58;;;15.02;;
43998;SDS011;51319;52.162;5.302;2023-03-01T02:30:21;28.45;;;14.85;;
43998;SDS011;51319;52.162;5.302;2023-03-01T02:32:49;26.52;;;15.20;;
43998;SDS011;51319;52.162;5.302;2023-03-01T02:35:20;26.52;;;15.68;;
43998;SDS011;51319;52.162;5.302;2023-03-01T02:37:48;27.27;;;15.68;;
43998;SDS011;51319;52.162;5.302;2023-03-01T02:40:16;26.77;;;15.98;;
43998;SDS011;51319;52.162;5.302;2023-03-01T02:42:51;28.25;;;16.17;;
43998;SDS011;51319;52.162;5.302;2023-03-01T02:45:22;25.77;;;15.55;;
43998;SDS011;51319;52.162;5.302;2023-03-01T02:47:49;26.35;;;15.63;;
43998;SDS011;51319;52.162;5.302;2023-03-01T02:50:25;27.90;;;15.43;;
43998;SDS011;51319;52.162;5.302;2023-03-01T02:53:01;26.55;;;15.98;;
43998;SDS011;51319;52.162;5.302;2023-03-01T02:55:51;29.75;;;16.15;;
43998;SDS011;51319;52.162;5.302;2023-03-01T02:58:18;30.35;;;16.98;;
43998;SDS011;51319;52.162;5.302;2023-03-01T03:00:45;26.98;;;15.88;;
43998;SDS011;51319;52.162;5.302;2023-03-01T03:03:16;26.48;;;16.27;;
43998;SDS011;51319;52.162;5.302;2023-03-01T03:05:45;30.08;;;16.65;;
43998;SDS011;51319;52.162;5.302;2023-03-01T03:08:14;28.42;;;16.35;;
43998;SDS011;51319;52.162;5.302;2023-03-01T03:10:50;29.92;;;16.77;;
43998;SDS011;51319;52.162;5.302;2023-03-01T03:13:17;30.58;;;16.35;;
43998;SDS011;51319;52.162;5.302;2023-03-01T03:15:45;33.38;;;16.85;;
43998;SDS011;51319;52.162;5.302;2023-03-01T03:18:13;30.25;;;16.67;;
43998;SDS011;51319;52.162;5.302;2023-03-01T03:20:42;29.88;;;16.23;;
43998;SDS011;51319;52.162;5.302;2023-03-01T03:23:10;32.72;;;17.05;;
43998;SDS011;51319;52.162;5.302;2023-03-01T03:25:37;29.90;;;16.38;;
43998;SDS011;51319;52.162;5.302;2023-03-01T03:28:04;28.17;;;15.55;;
43998;SDS011;51319;52.162;5.302;2023-03-01T03:30:37;32.58;;;16.65;;
43998;SDS011;51319;52.162;5.302;2023-03-01T03:33:05;28.80;;;17.33;;
43998;SDS011;51319;52.162;5.302;2023-03-01T03:35:34;28.52;;;17.00;;
43998;SDS011;51319;52.162;5.302;2023-03-01T03:38:07;29.73;;;16.23;;
43998;SDS011;51319;52.162;5.302;2023-03-01T03:40:45;26.75;;;15.88;;
43998;SDS011;51319;52.162;5.302;2023-03-01T03:43:14;27.67;;;16.23;;
43998;SDS011;51319;52.162;5.302;2023-03-01T03:45:44;31.45;;;16.88;;
43998;SDS011;51319;52.162;5.302;2023-03-01T03:48:12;31.50;;;17.05;;
43998;SDS011;51319;52.162;5.302;2023-03-01T03:50:39;30.27;;;16.90;;
43998;SDS011;51319;52.162;5.302;2023-03-01T03:53:09;31.58;;;16.92;;
43998;SDS011;51319;52.162;5.302;2023-03-01T03:55:37;30.30;;;16.77;;
43998;SDS011;51319;52.162;5.302;2023-03-01T03:58:08;24.98;;;15.65;;
43998;SDS011;51319;52.162;5.302;2023-03-01T04:00:42;31.00;;;17.02;;
43998;SDS011;51319;52.162;5.302;2023-03-01T04:03:11;27.25;;;17.33;;
43998;SDS011;51319;52.162;5.302;2023-03-01T04:05:39;32.40;;;17.70;;
43998;SDS011;51319;52.162;5.302;2023-03-01T04:08:07;29.83;;;18.02;;
43998;SDS011;51319;52.162;5.302;2023-03-01T04:10:36;32.58;;;18.65;;
43998;SDS011;51319;52.162;5.302;2023-03-01T04:13:05;34.95;;;18.48;;
43998;SDS011;51319;52.162;5.302;2023-03-01T04:15:33;32.63;;;18.90;;
43998;SDS011;51319;52.162;5.302;2023-03-01T04:18:01;31.70;;;18.08;;
43998;SDS011;51319;52.162;5.302;2023-03-01T04:20:30;28.60;;;16.75;;
43998;SDS011;51319;52.162;5.302;2023-03-01T04:25:37;32.92;;;17.48;;
43998;SDS011;51319;52.162;5.302;2023-03-01T04:28:22;31.02;;;17.60;;
43998;SDS011;51319;52.162;5.302;2023-03-01T04:30:54;28.80;;;17.55;;
43998;SDS011;51319;52.162;5.302;2023-03-01T04:33:22;30.38;;;17.48;;
43998;SDS011;51319;52.162;5.302;2023-03-01T04:35:49;34.28;;;18.23;;
43998;SDS011;51319;52.162;5.302;2023-03-01T04:38:17;27.67;;;18.25;;
43998;SDS011;51319;52.162;5.302;2023-03-01T04:40:45;37.30;;;18.75;;
43998;SDS011;51319;52.162;5.302;2023-03-01T04:43:12;31.15;;;18.00;;
43998;SDS011;51319;52.162;5.302;2023-03-01T04:45:42;33.65;;;17.95;;
43998;SDS011;51319;52.162;5.302;2023-03-01T04:48:09;35.85;;;18.15;;
43998;SDS011;51319;52.162;5.302;2023-03-01T04:50:36;32.83;;;17.60;;
43998;SDS011;51319;52.162;5.302;2023-03-01T04:53:03;32.50;;;17.95;;
43998;SDS011;51319;52.162;5.302;2023-03-01T04:55:30;28.33;;;17.95;;
43998;SDS011;51319;52.162;5.302;2023-03-01T04:57:57;29.38;;;18.80;;
43998;SDS011;51319;52.162;5.302;2023-03-01T05:00:24;35.63;;;19.15;;
43998;SDS011;51319;52.162;5.302;2023-03-01T05:02:55;31.42;;;18.50;;
43998;SDS011;51319;52.162;5.302;2023-03-01T05:05:28;31.92;;;18.23;;
43998;SDS011;51319;52.162;5.302;2023-03-01T05:07:58;25.45;;;16.08;;
43998;SDS011;51319;52.162;5.302;2023-03-01T05:10:27;33.78;;;18.60;;
43998;SDS011;51319;52.162;5.302;2023-03-01T05:12:56;28.70;;;17.20;;
43998;SDS011;51319;52.162;5.302;2023-03-01T05:15:24;31.42;;;16.98;;
43998;SDS011;51319;52.162;5.302;2023-03-01T05:17:53;30.63;;;17.55;;
43998;SDS011;51319;52.162;5.302;2023-03-01T05:20:21;30.20;;;18.40;;
43998;SDS011;51319;52.162;5.302;2023-03-01T05:22:51;30.50;;;18.65;;
43998;SDS011;51319;52.162;5.302;2023-03-01T05:25:20;36.05;;;18.98;;
43998;SDS011;51319;52.162;5.302;2023-03-01T05:27:47;30.75;;;18.08;;
43998;SDS011;51319;52.162;5.302;2023-03-01T05:30:14;32.47;;;18.30;;
43998;SDS011;51319;52.162;5.302;2023-03-01T05:32:42;28.52;;;17.75;;
43998;SDS011;51319;52.162;5.302;2023-03-01T05:35:15;32.63;;;18.55;;
43998;SDS011;51319;52.162;5.302;2023-03-01T05:37:44;35.42;;;17.70;;
43998;SDS011;51319;52.162;5.302;2023-03-01T05:40:13;35.60;;;19.40;;
43998;SDS011;51319;52.162;5.302;2023-03-01T05:42:45;34.58;;;18.95;;
43998;SDS011;51319;52.162;5.302;2023-03-01T05:45:18;33.50;;;18.88;;
43998;SDS011;51319;52.162;5.302;2023-03-01T05:47:46;34.35;;;17.83;;
43998;SDS011;51319;52.162;5.302;2023-03-01T05:50:15;33.00;;;18.20;;
43998;SDS011;51319;52.162;5.302;2023-03-01T05:52:47;38.60;;;18.40;;
43998;SDS011;51319;52.162;5.302;2023-03-01T05:55:16;30.48;;;18.33;;
43998;SDS011;51319;52.162;5.302;2023-03-01T05:57:45;33.55;;;18.40;;
43998;SDS011;51319;52.162;5.302;2023-03-01T06:00:12;33.58;;;18.80;;
43998;SDS011;51319;52.162;5.302;2023-03-01T06:02:42;35.83;;;19.70;;
43998;SDS011;51319;52.162;5.302;2023-03-01T06:05:10;33.63;;;19.23;;
43998;SDS011;51319;52.162;5.302;2023-03-01T06:07:38;33.38;;;20.50;;
43998;SDS011;51319;52.162;5.302;2023-03-01T06:10:06;32.25;;;19.95;;
43998;SDS011;51319;52.162;5.302;2023-03-01T06:12:34;31.65;;;19.55;;
43998;SDS011;51319;52.162;5.302;2023-03-01T06:15:03;35.33;;;19.85;;
43998;SDS011;51319;52.162;5.302;2023-03-01T06:17:34;31.13;;;17.63;;
43998;SDS011;51319;52.162;5.302;2023-03-01T06:20:04;37.13;;;19.60;;
43998;SDS011;51319;52.162;5.302;2023-03-01T06:22:32;40.95;;;20.83;;
43998;SDS011;51319;52.162;5.302;2023-03-01T06:24:59;39.63;;;20.88;;
43998;SDS011;51319;52.162;5.302;2023-03-01T06:27:26;34.75;;;20.48;;
43998;SDS011;51319;52.162;5.302;2023-03-01T06:30:00;39.67;;;21.67;;
43998;SDS011;51319;52.162;5.302;2023-03-01T06:32:27;42.20;;;22.00;;
43998;SDS011;51319;52.162;5.302;2023-03-01T06:34:54;37.58;;;22.15;;
43998;SDS011;51319;52.162;5.302;2023-03-01T06:37:21;43.63;;;22.42;;
43998;SDS011;51319;52.162;5.302;2023-03-01T06:39:48;42.72;;;24.85;;
43998;SDS011;51319;52.162;5.302;2023-03-01T06:42:15;64.80;;;34.53;;
43998;SDS011;51319;52.162;5.302;2023-03-01T06:44:43;88.43;;;42.80;;
43998;SDS011;51319;52.162;5.302;2023-03-01T06:47:10;78.60;;;38.90;;
43998;SDS011;51319;52.162;5.302;2023-03-01T06:49:37;77.00;;;36.45;;
43998;SDS011;51319;52.162;5.302;2023-03-01T06:52:05;68.45;;;33.53;;
43998;SDS011;51319;52.162;5.302;2023-03-01T06:54:32;61.47;;;32.25;;
43998;SDS011;51319;52.162;5.302;2023-03-01T06:56:59;64.68;;;32.88;;
43998;SDS011;51319;52.162;5.302;2023-03-01T06:59:26;58.90;;;32.97;;
43998;SDS011;51319;52.162;5.302;2023-03-01T07:01:52;45.28;;;27.42;;
43998;SDS011;51319;52.162;5.302;2023-03-01T07:04:19;48.60;;;26.80;;
43998;SDS011;51319;52.162;5.302;2023-03-01T07:06:46;54.00;;;27.70;;
43998;SDS011;51319;52.162;5.302;2023-03-01T07:09:23;44.95;;;26.75;;
43998;SDS011;51319;52.162;5.302;2023-03-01T07:11:50;44.55;;;27.92;;
43998;SDS011;51319;52.162;5.302;2023-03-01T07:14:16;51.80;;;30.10;;
43998;SDS011;51319;52.162;5.302;2023-03-01T07:16:43;51.30;;;32.85;;
43998;SDS011;51319;52.162;5.302;2023-03-01T07:19:10;57.28;;;32.03;;
43998;SDS011;51319;52.162;5.302;2023-03-01T07:21:37;59.85;;;34.20;;
43998;SDS011;51319;52.162;5.302;2023-03-01T07:24:07;58.38;;;31.73;;
43998;SDS011;51319;52.162;5.302;2023-03-01T07:26:34;54.40;;;30.67;;
43998;SDS011;51319;52.162;5.302;2023-03-01T07:29:02;59.58;;;32.42;;
43998;SDS011;51319;52.162;5.302;2023-03-01T07:31:31;58.13;;;33.03;;
43998;SDS011;51319;52.162;5.302;2023-03-01T07:33:58;57.65;;;33.78;;
43998;SDS011;51319;52.162;5.302;2023-03-01T07:36:25;74.30;;;36.58;;
43998;SDS011;51319;52.162;5.302;2023-03-01T07:38:52;62.80;;;34.20;;
43998;SDS011;51319;52.162;5.302;2023-03-01T07:41:19;58.70;;;32.55;;
43998;SDS011;51319;52.162;5.302;2023-03-01T07:43:46;54.53;;;30.15;;
43998;SDS011;51319;52.162;5.302;2023-03-01T07:46:13;82.57;;;39.13;;
43998;SDS011;51319;52.162;5.302;2023-03-01T07:48:39;59.75;;;34.03;;
43998;SDS011;51319;52.162;5.302;2023-03-01T07:51:07;50.67;;;29.73;;
43998;SDS011;51319;52.162;5.302;2023-03-01T07:53:34;61.95;;;31.83;;
43998;SDS011;51319;52.162;5.302;2023-03-01T07:56:05;51.50;;;29.52;;
43998;SDS011;51319;52.162;5.302;2023-03-01T07:58:36;48.58;;;27.15;;
43998;SDS011;51319;52.162;5.302;2023-03-01T08:01:04;48.42;;;27.70;;
43998;SDS011;51319;52.162;5.302;2023-03-01T08:03:33;57.20;;;30.02;;
43998;SDS011;51319;52.162;5.302;2023-03-01T08:06:01;43.63;;;27.33;;
43998;SDS011;51319;52.162;5.302;2023-03-01T08:08:30;38.53;;;22.90;;
43998;SDS011;51319;52.162;5.302;2023-03-01T08:11:02;38.80;;;24.75;;
43998;SDS011;51319;52.162;5.302;2023-03-01T08:13:30;34.95;;;22.80;;
43998;SDS011;51319;52.162;5.302;2023-03-01T08:16:08;37.20;;;22.52;;
43998;SDS011;51319;52.162;5.302;2023-03-01T08:18:37;35.13;;;22.25;;
43998;SDS011;51319;52.162;5.302;2023-03-01T08:21:05;38.45;;;21.73;;
43998;SDS011;51319;52.162;5.302;2023-03-01T08:23:33;35.72;;;22.85;;
43998;SDS011;51319;52.162;5.302;2023-03-01T08:28:32;31.85;;;19.58;;
43998;SDS011;51319;52.162;5.302;2023-03-01T08:30:59;31.17;;;18.00;;
43998;SDS011;51319;52.162;5.302;2023-03-01T08:33:26;25.98;;;18.38;;
43998;SDS011;51319;52.162;5.302;2023-03-01T08:36:01;29.42;;;19.05;;
43998;SDS011;51319;52.162;5.302;2023-03-01T08:38:29;30.50;;;18.30;;
43998;SDS011;51319;52.162;5.302;2023-03-01T08:40:58;22.73;;;16.27;;
43998;SDS011;51319;52.162;5.302;2023-03-01T08:43:27;23.65;;;16.42;;
43998;SDS011;51319;52.162;5.302;2023-03-01T08:45:53;22.92;;;16.58;;
43998;SDS011;51319;52.162;5.302;2023-03-01T08:48:20;18.90;;;14.82;;
43998;SDS011;51319;52.162;5.302;2023-03-01T08:50:47;21.27;;;14.95;;
43998;SDS011;51319;52.162;5.302;2023-03-01T08:53:14;20.00;;;15.15;;
43998;SDS011;51319;52.162;5.302;2023-03-01T08:55:41;26.40;;;15.93;;
43998;SDS011;51319;52.162;5.302;2023-03-01T08:58:08;22.00;;;16.17;;
43998;SDS011;51319;52.162;5.302;2023-03-01T09:00:35;22.95;;;16.80;;
43998;SDS011;51319;52.162;5.302;2023-03-01T09:03:02;19.92;;;14.85;;
43998;SDS011;51319;52.162;5.302;2023-03-01T09:05:31;18.92;;;13.10;;
43998;SDS011;51319;52.162;5.302;2023-03-01T09:07:59;14.73;;;13.10;;
43998;SDS011;51319;52.162;5.302;2023-03-01T09:10:26;33.65;;;21.48;;
43998;SDS011;51319;52.162;5.302;2023-03-01T09:12:52;21.75;;;16.25;;
43998;SDS011;51319;52.162;5.302;2023-03-01T09:15:19;13.05;;;11.63;;
43998;SDS011;51319;52.162;5.302;2023-03-01T09:17:46;14.68;;;11.18;;
43998;SDS011;51319;52.162;5.302;2023-03-01T09:20:13;16.88;;;10.45;;
43998;SDS011;51319;52.162;5.302;2023-03-01T09:22:40;11.98;;;9.45;;
43998;SDS011;51319;52.162;5.302;2023-03-01T09:25:07;13.48;;;9.82;;
43998;SDS011;51319;52.162;5.302;2023-03-01T09:27:34;13.02;;;10.43;;
43998;SDS011;51319;52.162;5.302;2023-03-01T09:30:01;21.42;;;15.18;;
43998;SDS011;51319;52.162;5.302;2023-03-01T09:32:29;22.40;;;16.35;;
43998;SDS011;51319;52.162;5.302;2023-03-01T09:34:57;10.38;;;9.25;;
43998;SDS011;51319;52.162;5.302;2023-03-01T09:37:26;12.80;;;9.25;;
43998;SDS011;51319;52.162;5.302;2023-03-01T09:39:53;14.73;;;10.57;;
43998;SDS011;51319;52.162;5.302;2023-03-01T09:42:20;13.30;;;9.50;;
43998;SDS011;51319;52.162;5.302;2023-03-01T09:47:25;24.48;;;14.10;;
43998;SDS011;51319;52.162;5.302;2023-03-01T09:50:27;14.20;;;10.02;;
43998;SDS011;51319;52.162;5.302;2023-03-01T09:53:52;14.83;;;9.60;;
43998;SDS011;51319;52.162;5.302;2023-03-01T09:56:41;14.23;;;9.98;;
43998;SDS011;51319;52.162;5.302;2023-03-01T10:06:57;8.35;;;6.47;;
43998;SDS011;51319;52.162;5.302;2023-03-01T10:09:28;8.88;;;6.07;;
43998;SDS011;51319;52.162;5.302;2023-03-01T10:12:00;9.63;;;6.53;;
43998;SDS011;51319;52.162;5.302;2023-03-01T10:17:48;11.00;;;7.57;;
43998;SDS011;51319;52.162;5.302;2023-03-01T10:22:46;9.48;;;5.50;;
43998;SDS011;51319;52.162;5.302;2023-03-01T10:27:59;8.75;;;4.82;;
43998;SDS011;51319;52.162;5.302;2023-03-01T10:30:34;6.65;;;5.47;;
43998;SDS011;51319;52.162;5.302;2023-03-01T10:33:13;6.70;;;5.90;;
43998;SDS011;51319;52.162;5.302;2023-03-01T10:35:49;8.63;;;5.10;;
43998;SDS011;51319;52.162;5.302;2023-03-01T10:38:16;5.97;;;4.97;;
43998;SDS011;51319;52.162;5.302;2023-03-01T10:40:51;11.15;;;6.05;;
43998;SDS011;51319;52.162;5.302;2023-03-01T10:43:52;7.45;;;6.60;;
43998;SDS011;51319;52.162;5.302;2023-03-01T10:46:25;10.77;;;6.30;;
43998;SDS011;51319;52.162;5.302;2023-03-01T10:51:42;10.52;;;5.47;;
43998;SDS011;51319;52.162;5.302;2023-03-01T10:56:50;5.88;;;4.05;;
43998;SDS011;51319;52.162;5.302;2023-03-01T10:59:33;4.57;;;3.80;;
43998;SDS011;51319;52.162;5.302;2023-03-01T11:04:58;7.70;;;5.18;;
43998;SDS011;51319;52.162;5.302;2023-03-01T11:07:46;11.32;;;7.53;;
43998;SDS011;51319;52.162;5.302;2023-03-01T11:10:22;10.38;;;7.28;;
43998;SDS011;51319;52.162;5.302;2023-03-01T11:12:53;4.43;;;3.75;;
43998;SDS011;51319;52.162;5.302;2023-03-01T11:15:31;4.10;;;3.70;;
43998;SDS011;51319;52.162;5.302;2023-03-01T11:17:58;4.15;;;3.15;;
43998;SDS011;51319;52.162;5.302;2023-03-01T11:20:39;4.07;;;3.22;;
43998;SDS011;51319;52.162;5.302;2023-03-01T11:23:10;7.32;;;3.15;;
43998;SDS011;51319;52.162;5.302;2023-03-01T11:25:40;3.72;;;3.00;;
43998;SDS011;51319;52.162;5.302;2023-03-01T11:28:13;8.30;;;4.13;;
43998;SDS011;51319;52.162;5.302;2023-03-01T11:30:49;2.92;;;2.70;;
43998;SDS011;51319;52.162;5.302;2023-03-01T11:42:12;4.03;;;3.15;;
43998;SDS011;51319;52.162;5.302;2023-03-01T11:44:46;5.05;;;3.58;;
43998;SDS011;51319;52.162;5.302;2023-03-01T11:50:34;2.78;;;2.33;;
43998;SDS011;51319;52.162;5.302;2023-03-01T12:01:49;2.75;;;2.47;;
43998;SDS011;51319;52.162;5.302;2023-03-01T12:04:20;5.72;;;2.72;;
43998;SDS011;51319;52.162;5.302;2023-03-01T12:07:00;4.65;;;2.90;;
43998;SDS011;51319;52.162;5.302;2023-03-01T12:17:57;6.57;;;3.47;;
43998;SDS011;51319;52.162;5.302;2023-03-01T12:20:34;3.70;;;3.40;;
43998;SDS011;51319;52.162;5.302;2023-03-01T12:26:23;4.95;;;3.65;;
43998;SDS011;51319;52.162;5.302;2023-03-01T12:48:33;4.68;;;3.55;;
43998;SDS011;51319;52.162;5.302;2023-03-01T12:51:08;4.05;;;3.38;;
43998;SDS011;51319;52.162;5.302;2023-03-01T12:53:40;4.57;;;2.97;;
43998;SDS011;51319;52.162;5.302;2023-03-01T12:56:11;3.90;;;3.15;;
43998;SDS011;51319;52.162;5.302;2023-03-01T13:04:27;4.53;;;3.08;;
43998;SDS011;51319;52.162;5.302;2023-03-01T13:17:50;6.13;;;3.40;;
43998;SDS011;51319;52.162;5.302;2023-03-01T13:20:52;3.50;;;3.20;;
43998;SDS011;51319;52.162;5.302;2023-03-01T13:31:09;6.30;;;3.83;;
43998;SDS011;51319;52.162;5.302;2023-03-01T13:34:01;3.88;;;2.90;;
43998;SDS011;51319;52.162;5.302;2023-03-01T13:39:04;4.68;;;3.97;;
43998;SDS011;51319;52.162;5.302;2023-03-01T13:41:53;4.70;;;3.45;;
43998;SDS011;51319;52.162;5.302;2023-03-01T13:44:24;7.30;;;3.70;;
43998;SDS011;51319;52.162;5.302;2023-03-01T13:55:30;4.07;;;3.43;;
43998;SDS011;51319;52.162;5.302;2023-03-01T13:58:33;7.47;;;3.78;;
43998;SDS011;51319;52.162;5.302;2023-03-01T14:01:00;4.63;;;3.92;;
43998;SDS011;51319;52.162;5.302;2023-03-01T14:03:30;6.78;;;3.60;;
43998;SDS011;51319;52.162;5.302;2023-03-01T14:06:07;5.68;;;2.95;;
43998;SDS011;51319;52.162;5.302;2023-03-01T14:08:44;4.10;;;3.28;;
43998;SDS011;51319;52.162;5.302;2023-03-01T14:17:03;7.05;;;5.05;;
43998;SDS011;51319;52.162;5.302;2023-03-01T14:19:54;9.07;;;6.75;;
43998;SDS011;51319;52.162;5.302;2023-03-01T14:22:24;7.38;;;3.88;;
43998;SDS011;51319;52.162;5.302;2023-03-01T14:25:03;4.80;;;3.55;;
43998;SDS011;51319;52.162;5.302;2023-03-01T14:27:42;5.18;;;3.00;;
43998;SDS011;51319;52.162;5.302;2023-03-01T14:30:11;4.05;;;3.30;;
43998;SDS011;51319;52.162;5.302;2023-03-01T14:32:54;12.10;;;6.63;;
43998;SDS011;51319;52.162;5.302;2023-03-01T14:35:33;7.57;;;3.72;;
43998;SDS011;51319;52.162;5.302;2023-03-01T14:38:02;4.47;;;3.60;;
43998;SDS011;51319;52.162;5.302;2023-03-01T14:45:34;6.97;;;4.65;;
43998;SDS011;51319;52.162;5.302;2023-03-01T14:48:02;8.07;;;5.38;;
43998;SDS011;51319;52.162;5.302;2023-03-01T14:50:32;8.75;;;5.78;;
43998;SDS011;51319;52.162;5.302;2023-03-01T14:53:03;12.70;;;6.90;;
43998;SDS011;51319;52.162;5.302;2023-03-01T14:55:36;8.40;;;4.93;;
43998;SDS011;51319;52.162;5.302;2023-03-01T14:58:14;7.68;;;4.70;;
43998;SDS011;51319;52.162;5.302;2023-03-01T15:00:49;4.78;;;3.72;;
43998;SDS011;51319;52.162;5.302;2023-03-01T15:03:30;8.00;;;3.90;;
43998;SDS011;51319;52.162;5.302;2023-03-01T15:06:11;6.70;;;4.32;;
43998;SDS011;51319;52.162;5.302;2023-03-01T15:08:42;7.50;;;4.60;;
43998;SDS011;51319;52.162;5.302;2023-03-01T15:13:51;5.38;;;4.75;;
43998;SDS011;51319;52.162;5.302;2023-03-01T15:16:38;8.10;;;4.90;;
43998;SDS011;51319;52.162;5.302;2023-03-01T15:19:07;8.48;;;4.75;;
43998;SDS011;51319;52.162;5.302;2023-03-01T15:21:42;6.05;;;4.03;;
43998;SDS011;51319;52.162;5.302;2023-03-01T15:27:04;8.77;;;4.15;;
43998;SDS011;51319;52.162;5.302;2023-03-01T15:29:34;8.55;;;3.53;;
43998;SDS011;51319;52.162;5.302;2023-03-01T15:34:54;4.20;;;3.42;;
43998;SDS011;51319;52.162;5.302;2023-03-01T15:40:26;6.47;;;3.58;;
43998;SDS011;51319;52.162;5.302;2023-03-01T15:43:05;6.00;;;3.40;;
43998;SDS011;51319;52.162;5.302;2023-03-01T15:45:32;7.05;;;3.90;;
43998;SDS011;51319;52.162;5.302;2023-03-01T15:48:00;7.35;;;3.53;;
43998;SDS011;51319;52.162;5.302;2023-03-01T15:50:34;4.82;;;3.53;;
43998;SDS011;51319;52.162;5.302;2023-03-01T15:53:09;5.35;;;3.65;;
43998;SDS011;51319;52.162;5.302;2023-03-01T15:55:41;5.28;;;4.05;;
43998;SDS011;51319;52.162;5.302;2023-03-01T15:58:18;7.57;;;3.90;;
43998;SDS011;51319;52.162;5.302;2023-03-01T16:01:26;5.85;;;4.15;;
43998;SDS011;51319;52.162;5.302;2023-03-01T16:03:56;8.82;;;5.25;;
43998;SDS011;51319;52.162;5.302;2023-03-01T16:06:24;7.32;;;4.22;;
43998;SDS011;51319;52.162;5.302;2023-03-01T16:08:51;5.30;;;3.70;;
43998;SDS011;51319;52.162;5.302;2023-03-01T16:11:19;6.40;;;3.60;;
43998;SDS011;51319;52.162;5.302;2023-03-01T16:13:47;6.65;;;3.95;;
43998;SDS011;51319;52.162;5.302;2023-03-01T16:16:14;37.08;;;21.15;;
43998;SDS011;51319;52.162;5.302;2023-03-01T16:18:43;7.45;;;4.00;;
43998;SDS011;51319;52.162;5.302;2023-03-01T16:21:16;7.63;;;4.45;;
43998;SDS011;51319;52.162;5.302;2023-03-01T16:23:46;8.80;;;4.25;;
43998;SDS011;51319;52.162;5.302;2023-03-01T16:26:14;7.05;;;4.43;;
43998;SDS011;51319;52.162;5.302;2023-03-01T16:28:42;8.85;;;4.38;;
43998;SDS011;51319;52.162;5.302;2023-03-01T16:31:10;17.65;;;5.25;;
43998;SDS011;51319;52.162;5.302;2023-03-01T16:33:37;7.93;;;4.40;;
43998;SDS011;51319;52.162;5.302;2023-03-01T16:36:08;6.93;;;4.72;;
43998;SDS011;51319;52.162;5.302;2023-03-01T16:38:37;9.88;;;4.85;;
43998;SDS011;51319;52.162;5.302;2023-03-01T16:41:04;9.50;;;4.43;;
43998;SDS011;51319;52.162;5.302;2023-03-01T16:43:31;11.00;;;4.85;;
43998;SDS011;51319;52.162;5.302;2023-03-01T16:46:04;7.50;;;4.70;;
43998;SDS011;51319;52.162;5.302;2023-03-01T16:48:47;11.55;;;5.30;;
43998;SDS011;51319;52.162;5.302;2023-03-01T16:51:14;9.95;;;5.20;;
43998;SDS011;51319;52.162;5.302;2023-03-01T16:53:42;12.43;;;5.70;;
43998;SDS011;51319;52.162;5.302;2023-03-01T16:56:12;13.20;;;6.28;;
43998;SDS011;51319;52.162;5.302;2023-03-01T16:58:39;8.07;;;5.38;;
43998;SDS011;51319;52.162;5.302;2023-03-01T17:03:35;8.63;;;4.90;;
43998;SDS011;51319;52.162;5.302;2023-03-01T17:06:06;12.40;;;5.88;;
43998;SDS011;51319;52.162;5.302;2023-03-01T17:08:36;7.93;;;5.40;;
43998;SDS011;51319;52.162;5.302;2023-03-01T17:11:07;8.68;;;5.30;;
43998;SDS011;51319;52.162;5.302;2023-03-01T17:13:40;9.15;;;5.80;;
43998;SDS011;51319;52.162;5.302;2023-03-01T17:16:08;13.00;;;5.90;;
43998;SDS011;51319;52.162;5.302;2023-03-01T17:18:37;14.00;;;6.63;;
43998;SDS011;51319;52.162;5.302;2023-03-01T17:21:04;10.20;;;6.05;;
43998;SDS011;51319;52.162;5.302;2023-03-01T17:23:32;13.75;;;5.63;;
43998;SDS011;51319;52.162;5.302;2023-03-01T17:26:01;12.05;;;6.97;;
43998;SDS011;51319;52.162;5.302;2023-03-01T17:28:29;15.70;;;8.60;;
43998;SDS011;51319;52.162;5.302;2023-03-01T17:30:58;18.98;;;10.50;;
43998;SDS011;51319;52.162;5.302;2023-03-01T17:33:26;18.20;;;9.25;;
43998;SDS011;51319;52.162;5.302;2023-03-01T17:35:56;16.25;;;9.10;;